Weather History for Boonville, MO

Change the Weather History Date:

Monday, January 21, 2013

  Actual Average Record
Temperature  
Mean Temperature 19 °F -  
Max Temperature 22 °F 36 °F 60 °F (1986)
Min Temperature 16 °F 19 °F -15 °F (1985)
Degree Days  
Heating Degree Days 46    
Moisture  
Dew Point 3 °F    
Average Humidity 53    
Maximum Humidity 75    
Minimum Humidity 31    
Precipitation  
Precipitation 0.00 in - - ()
Sea Level Pressure  
Sea Level Pressure 30.38 in    
Wind  
Wind Speed 8 mph (NW)    
Max Wind Speed 15 mph    
Max Gust Speed 20 mph    
Visibility 10 miles    
Events      
Averages and records for this station are not official NWS values.
T = Trace of Precipitation, MM = Missing Value Source: NWS Daily Summary

Daily Weather History Graph

Daily Weather History Graph

Search for Another Location

Airport:

Trip Planner

Search our weather history database for the weather conditions in past years. The results will help you decide how hot, cold, wet, or windy it might be!

Date:

Astronomy

Jan. 21, 2013 Rise Set
Actual Time 7:24 AM CST 5:19 PM CST
Civil Twilight 6:56 AM CST 5:48 PM CST
Nautical Twilight 6:23 AM CST 6:21 PM CST
Astronomical Twilight 5:51 AM CST 6:52 PM CST
Moon 1:00 PM CST (1/21) 2:53 AM CST (1/21)
Length of Visible Light 10h 52m
Length of Day
9h 54m
Waxing Gibbous, 75% of the Moon is Illuminated
Jan 21
Waxing Gibbous
Jan 26
Full
Feb 3
Last Quarter
Feb 10
New
Feb 17
First Quarter

Hourly Weather History & Observations

Time (CST) Temp. Windchill Dew Point Humidity Pressure Visibility Wind Dir Wind Speed Gust Speed Precip Events Conditions
12:15 AM 22.1 °F 13.7 °F 10.0 °F 60% 30.36 in 10.0 mi NNW 6.9 mph - N/A   Clear
12:35 AM 21.6 °F 14.0 °F 10.6 °F 63% 30.35 in 10.0 mi NW 5.8 mph - N/A   Clear
12:55 AM 21.6 °F 9.9 °F 10.6 °F 63% 30.36 in 10.0 mi NW 11.5 mph - N/A   Clear
1:15 AM 21.0 °F 9.9 °F 10.9 °F 65% 30.37 in 10.0 mi NW 10.4 mph - N/A   Clear
1:35 AM 20.7 °F 11.9 °F 11.3 °F 67% 30.37 in 10.0 mi NW 6.9 mph - N/A   Clear
1:55 AM 20.3 °F 9.8 °F 11.8 °F 70% 30.38 in 10.0 mi NW 9.2 mph - N/A   Mostly Cloudy
2:15 AM 20.3 °F 7.2 °F 12.4 °F 71% 30.38 in 10.0 mi NNW 13.8 mph 18.4 mph N/A   Overcast
2:35 AM 19.8 °F 7.7 °F 12.0 °F 72% 30.38 in 10.0 mi NNW 11.5 mph - N/A   Scattered Clouds
2:55 AM 19.2 °F 11.3 °F 12.0 °F 74% 30.38 in 10.0 mi NW 5.8 mph - N/A   Clear
3:15 AM 18.5 °F 8.4 °F 11.8 °F 75% 30.38 in 10.0 mi NW 8.1 mph - N/A   Clear
3:35 AM 18.3 °F 11.5 °F 11.3 °F 74% 30.37 in 10.0 mi WNW 4.6 mph - N/A   Clear
3:55 AM 18.0 °F 12.7 °F 10.6 °F 73% 30.36 in 10.0 mi WNW 3.5 mph - N/A   Clear
4:15 AM 17.6 °F 7.3 °F 10.6 °F 74% 30.37 in 10.0 mi NW 8.1 mph - N/A   Clear
4:35 AM 17.6 °F 10.7 °F 10.4 °F 73% 30.37 in 10.0 mi WNW 4.6 mph - N/A   Clear
4:55 AM 17.4 °F 8.0 °F 10.2 °F 73% 30.38 in 10.0 mi WNW 6.9 mph - N/A   Clear
5:15 AM 17.2 °F 7.8 °F 9.9 °F 73% 30.38 in 10.0 mi WNW 6.9 mph - N/A   Clear
5:35 AM 17.1 °F 10.0 °F 9.3 °F 72% 30.38 in 10.0 mi WNW 4.6 mph - N/A   Clear
5:55 AM 16.7 °F 8.3 °F 10.0 °F 75% 30.38 in 10.0 mi WNW 5.8 mph - N/A   Clear
6:15 AM 16.7 °F 9.6 °F 9.1 °F 72% 30.37 in 10.0 mi WNW 4.6 mph - N/A   Clear
6:35 AM 16.5 °F 8.1 °F 8.4 °F 70% 30.37 in 10.0 mi WNW 5.8 mph - N/A   Clear
6:55 AM 16.5 °F 9.4 °F 9.1 °F 73% 30.37 in 10.0 mi WNW 4.6 mph - N/A   Clear
7:15 AM 16.3 °F 9.2 °F 9.1 °F 73% 30.37 in 10.0 mi West 4.6 mph - N/A   Clear
7:35 AM 16.3 °F 7.8 °F 8.6 °F 72% 30.37 in 10.0 mi West 5.8 mph - N/A   Clear
7:55 AM 16.5 °F 6.9 °F 8.6 °F 71% 30.38 in 10.0 mi West 6.9 mph - N/A   Clear
8:35 AM 17.8 °F 9.6 °F 8.6 °F 67% 30.38 in 10.0 mi West 5.8 mph - N/A   Clear
8:55 AM 18.5 °F 8.4 °F 9.1 °F 67% 30.38 in 10.0 mi WNW 8.1 mph - N/A   Clear
9:15 AM 19.2 °F 9.3 °F 9.3 °F 65% 30.39 in 10.0 mi WNW 8.1 mph 16.1 mph N/A   Scattered Clouds
9:35 AM 19.9 °F 7.3 °F 9.5 °F 64% 30.40 in 10.0 mi WNW 12.7 mph 17.3 mph N/A   Mostly Cloudy
9:55 AM 20.7 °F 10.2 °F 8.4 °F 59% 30.41 in 10.0 mi WNW 9.2 mph - N/A   Overcast
10:15 AM 21.0 °F 8.6 °F 7.7 °F 56% 30.41 in 10.0 mi NW 12.7 mph 17.3 mph N/A   Overcast
10:35 AM 21.7 °F 8.5 °F 3.9 °F 46% 30.40 in 10.0 mi NW 15.0 mph 19.6 mph N/A   Overcast
10:55 AM 21.4 °F 9.7 °F 3.4 °F 46% 30.41 in 10.0 mi WNW 11.5 mph - N/A   Overcast
11:15 AM 21.9 °F 9.2 °F 3.9 °F 46% 30.40 in 10.0 mi NNW 13.8 mph 18.4 mph N/A   Overcast
11:35 AM 22.1 °F 9.5 °F 1.6 °F 41% 30.40 in 10.0 mi NW 13.8 mph 18.4 mph N/A   Scattered Clouds
11:55 AM 22.6 °F 11.3 °F -0.8 °F 36% 30.39 in 10.0 mi NW 11.5 mph 16.1 mph N/A   Scattered Clouds
12:15 PM 22.3 °F 9.7 °F -2.7 °F 33% 30.39 in 10.0 mi NNW 13.8 mph 18.4 mph N/A   Overcast
12:35 PM 21.7 °F 14.3 °F -4.9 °F 31% 30.39 in 10.0 mi WNW 5.8 mph - N/A   Overcast
12:55 PM 21.7 °F 10.2 °F -4.5 °F 32% 30.39 in 10.0 mi NW 11.5 mph - N/A   Overcast
1:15 PM 21.2 °F 11.7 °F -5.6 °F 31% 30.38 in 10.0 mi NW 8.1 mph 18.4 mph N/A   Overcast
1:35 PM 20.3 °F 8.3 °F -6.3 °F 31% 30.38 in 10.0 mi NNW 11.5 mph 17.3 mph N/A   Overcast
1:55 PM 20.1 °F 8.1 °F -4.7 °F 33% 30.38 in 10.0 mi WNW 11.5 mph 17.3 mph N/A   Overcast
2:15 PM 19.9 °F 7.9 °F -4.2 °F 35% 30.38 in 10.0 mi North 11.5 mph - N/A   Overcast
2:35 PM 18.9 °F 8.0 °F -3.3 °F 38% 30.39 in 10.0 mi NNW 9.2 mph - N/A   Overcast
2:55 PM 18.3 °F 8.2 °F -2.7 °F 40% 30.39 in 10.0 mi NNW 8.1 mph 16.1 mph N/A   Overcast
3:15 PM 18.3 °F 7.3 °F -2.4 °F 40% 30.39 in 10.0 mi NNW 9.2 mph - N/A   Overcast
3:35 PM 18.0 °F 6.1 °F -2.7 °F 40% 30.39 in 10.0 mi NNW 10.4 mph - N/A   Overcast
3:55 PM 17.4 °F 5.4 °F -3.1 °F 40% 30.39 in 10.0 mi NNW 10.4 mph - N/A   Overcast
4:15 PM 17.2 °F 7.8 °F -2.9 °F 41% 30.39 in 10.0 mi NNW 6.9 mph - N/A   Overcast
4:35 PM 16.9 °F 7.4 °F -2.6 °F 42% 30.38 in 10.0 mi North 6.9 mph - N/A   Overcast
5:15 PM 16.7 °F 11.2 °F -1.5 °F 45% 30.38 in 10.0 mi NW 3.5 mph - N/A   Overcast
5:35 PM 16.7 °F 9.6 °F -1.5 °F 45% 30.38 in 10.0 mi NW 4.6 mph - N/A   Overcast
5:55 PM 16.7 °F 8.3 °F -3.6 °F 41% 30.38 in 10.0 mi NW 5.8 mph - N/A   Overcast
6:15 PM 16.7 °F 8.3 °F -5.6 °F 37% 30.38 in 10.0 mi NNW 5.8 mph - N/A   Overcast
6:55 PM 16.7 °F 8.3 °F -4.0 °F 40% 30.38 in 10.0 mi NNW 5.8 mph - N/A   Overcast
7:15 PM 16.7 °F 9.6 °F -3.5 °F 41% 30.38 in 10.0 mi NW 4.6 mph - N/A   Overcast
7:35 PM 16.7 °F 8.3 °F -3.1 °F 42% 30.39 in 10.0 mi NNW 5.8 mph - N/A   Overcast
7:55 PM 16.5 °F 6.9 °F -3.6 °F 41% 30.39 in 10.0 mi NNW 6.9 mph - N/A   Overcast
8:15 PM 16.5 °F 8.1 °F -3.6 °F 41% 30.38 in 10.0 mi North 5.8 mph - N/A   Overcast
8:35 PM 16.5 °F 6.9 °F -3.1 °F 42% 30.38 in 10.0 mi NNW 6.9 mph - N/A   Overcast
8:55 PM 16.7 °F 8.3 °F -2.7 °F 42% 30.38 in 10.0 mi NNW 5.8 mph - N/A   Overcast
9:15 PM 16.7 °F 9.6 °F -2.0 °F 44% 30.39 in 10.0 mi WNW 4.6 mph - N/A   Overcast
9:35 PM 16.5 °F 11.0 °F -1.8 °F 44% 30.38 in 10.0 mi North 3.5 mph - N/A   Overcast
9:55 PM 16.7 °F 9.6 °F -1.7 °F 44% 30.39 in 10.0 mi NNW 4.6 mph - N/A   Overcast
10:15 PM 16.7 °F 9.6 °F -1.7 °F 44% 30.39 in 10.0 mi NW 4.6 mph - N/A   Overcast
10:35 PM 16.7 °F 11.2 °F -1.1 °F 46% 30.39 in 10.0 mi North 3.5 mph - N/A   Overcast
10:55 PM 16.7 °F 9.6 °F -1.5 °F 45% 30.39 in 10.0 mi NNW 4.6 mph - N/A   Overcast
11:35 PM 16.7 °F 8.3 °F -1.8 °F 44% 30.38 in 10.0 mi NNW 5.8 mph - N/A   Overcast
11:55 PM 16.7 °F 8.3 °F -2.2 °F 43% 30.38 in 10.0 mi NNW 5.8 mph - N/A   Overcast